sensor_id;sensor_type;location;lat;lon;timestamp;P1;durP1;ratioP1;P2;durP2;ratioP2
22336;SDS011;14992;50.844;4.418;2023-04-06T00:01:08;13.55;;;7.50;;
22336;SDS011;14992;50.844;4.418;2023-04-06T00:03:37;13.98;;;7.78;;
22336;SDS011;14992;50.844;4.418;2023-04-06T00:06:06;15.43;;;7.88;;
22336;SDS011;14992;50.844;4.418;2023-04-06T00:08:35;15.75;;;8.40;;
22336;SDS011;14992;50.844;4.418;2023-04-06T00:11:05;17.35;;;8.40;;
22336;SDS011;14992;50.844;4.418;2023-04-06T00:13:34;17.73;;;7.30;;
22336;SDS011;14992;50.844;4.418;2023-04-06T00:16:04;17.38;;;8.20;;
22336;SDS011;14992;50.844;4.418;2023-04-06T00:18:33;13.57;;;6.55;;
22336;SDS011;14992;50.844;4.418;2023-04-06T00:21:03;15.38;;;8.05;;
22336;SDS011;14992;50.844;4.418;2023-04-06T00:23:32;15.98;;;8.23;;
22336;SDS011;14992;50.844;4.418;2023-04-06T00:26:01;13.00;;;7.18;;
22336;SDS011;14992;50.844;4.418;2023-04-06T00:28:31;11.90;;;6.55;;
22336;SDS011;14992;50.844;4.418;2023-04-06T00:31:00;11.25;;;7.32;;
22336;SDS011;14992;50.844;4.418;2023-04-06T00:33:29;12.68;;;7.13;;
22336;SDS011;14992;50.844;4.418;2023-04-06T00:35:58;15.00;;;8.25;;
22336;SDS011;14992;50.844;4.418;2023-04-06T00:38:27;14.90;;;7.25;;
22336;SDS011;14992;50.844;4.418;2023-04-06T00:40:56;17.00;;;7.45;;
22336;SDS011;14992;50.844;4.418;2023-04-06T00:43:25;16.65;;;8.40;;
22336;SDS011;14992;50.844;4.418;2023-04-06T00:45:56;17.98;;;10.02;;
22336;SDS011;14992;50.844;4.418;2023-04-06T00:48:29;13.50;;;8.13;;
22336;SDS011;14992;50.844;4.418;2023-04-06T00:51:00;14.75;;;7.13;;
22336;SDS011;14992;50.844;4.418;2023-04-06T00:53:37;14.23;;;7.47;;
22336;SDS011;14992;50.844;4.418;2023-04-06T00:56:11;13.35;;;6.95;;
22336;SDS011;14992;50.844;4.418;2023-04-06T00:58:50;14.93;;;7.82;;
22336;SDS011;14992;50.844;4.418;2023-04-06T01:01:21;16.02;;;7.18;;
22336;SDS011;14992;50.844;4.418;2023-04-06T01:03:53;14.15;;;7.72;;
22336;SDS011;14992;50.844;4.418;2023-04-06T01:06:24;12.45;;;7.30;;
22336;SDS011;14992;50.844;4.418;2023-04-06T01:08:58;14.00;;;7.50;;
22336;SDS011;14992;50.844;4.418;2023-04-06T01:11:32;14.70;;;7.32;;
22336;SDS011;14992;50.844;4.418;2023-04-06T01:14:07;20.52;;;7.85;;
22336;SDS011;14992;50.844;4.418;2023-04-06T01:17:08;13.82;;;7.38;;
22336;SDS011;14992;50.844;4.418;2023-04-06T01:19:42;12.07;;;6.55;;
22336;SDS011;14992;50.844;4.418;2023-04-06T01:22:25;13.57;;;7.80;;
22336;SDS011;14992;50.844;4.418;2023-04-06T01:25:02;14.18;;;7.25;;
22336;SDS011;14992;50.844;4.418;2023-04-06T01:27:59;13.15;;;7.55;;
22336;SDS011;14992;50.844;4.418;2023-04-06T01:30:55;13.35;;;6.47;;
22336;SDS011;14992;50.844;4.418;2023-04-06T01:33:44;12.77;;;6.53;;
22336;SDS011;14992;50.844;4.418;2023-04-06T01:36:17;12.40;;;7.40;;
22336;SDS011;14992;50.844;4.418;2023-04-06T01:38:53;11.15;;;7.15;;
22336;SDS011;14992;50.844;4.418;2023-04-06T01:41:29;15.90;;;7.07;;
22336;SDS011;14992;50.844;4.418;2023-04-06T01:43:58;13.75;;;6.97;;
22336;SDS011;14992;50.844;4.418;2023-04-06T01:46:29;13.88;;;7.78;;
22336;SDS011;14992;50.844;4.418;2023-04-06T01:48:59;18.13;;;8.25;;
22336;SDS011;14992;50.844;4.418;2023-04-06T01:51:40;14.32;;;7.60;;
22336;SDS011;14992;50.844;4.418;2023-04-06T01:54:13;16.65;;;7.53;;
22336;SDS011;14992;50.844;4.418;2023-04-06T01:57:00;14.38;;;8.20;;
22336;SDS011;14992;50.844;4.418;2023-04-06T01:59:58;14.50;;;8.13;;
22336;SDS011;14992;50.844;4.418;2023-04-06T02:02:39;15.15;;;7.07;;
22336;SDS011;14992;50.844;4.418;2023-04-06T02:05:16;15.23;;;7.88;;
22336;SDS011;14992;50.844;4.418;2023-04-06T02:07:45;12.68;;;7.05;;
22336;SDS011;14992;50.844;4.418;2023-04-06T02:10:20;13.32;;;7.30;;
22336;SDS011;14992;50.844;4.418;2023-04-06T02:12:49;14.40;;;8.00;;
22336;SDS011;14992;50.844;4.418;2023-04-06T02:15:24;11.75;;;7.38;;
22336;SDS011;14992;50.844;4.418;2023-04-06T02:17:54;15.27;;;7.57;;
22336;SDS011;14992;50.844;4.418;2023-04-06T02:20:24;13.25;;;7.35;;
22336;SDS011;14992;50.844;4.418;2023-04-06T02:22:53;14.48;;;7.95;;
22336;SDS011;14992;50.844;4.418;2023-04-06T02:25:23;11.68;;;7.13;;
22336;SDS011;14992;50.844;4.418;2023-04-06T02:27:53;15.50;;;8.35;;
22336;SDS011;14992;50.844;4.418;2023-04-06T02:30:22;16.33;;;7.20;;
22336;SDS011;14992;50.844;4.418;2023-04-06T02:32:51;14.30;;;7.80;;
22336;SDS011;14992;50.844;4.418;2023-04-06T02:35:21;15.70;;;8.20;;
22336;SDS011;14992;50.844;4.418;2023-04-06T02:40:23;14.68;;;8.20;;
22336;SDS011;14992;50.844;4.418;2023-04-06T02:42:52;14.07;;;8.15;;
22336;SDS011;14992;50.844;4.418;2023-04-06T02:45:27;14.45;;;6.88;;
22336;SDS011;14992;50.844;4.418;2023-04-06T02:48:01;16.67;;;7.47;;
22336;SDS011;14992;50.844;4.418;2023-04-06T02:50:31;13.75;;;7.68;;
22336;SDS011;14992;50.844;4.418;2023-04-06T02:53:03;17.25;;;8.25;;
22336;SDS011;14992;50.844;4.418;2023-04-06T02:55:35;14.38;;;7.95;;
22336;SDS011;14992;50.844;4.418;2023-04-06T02:58:04;16.77;;;7.72;;
22336;SDS011;14992;50.844;4.418;2023-04-06T03:00:55;13.02;;;8.48;;
22336;SDS011;14992;50.844;4.418;2023-04-06T03:03:24;14.70;;;7.97;;
22336;SDS011;14992;50.844;4.418;2023-04-06T03:05:53;14.88;;;7.60;;
22336;SDS011;14992;50.844;4.418;2023-04-06T03:08:26;17.13;;;7.90;;
22336;SDS011;14992;50.844;4.418;2023-04-06T03:10:57;13.90;;;8.40;;
22336;SDS011;14992;50.844;4.418;2023-04-06T03:13:35;16.65;;;8.18;;
22336;SDS011;14992;50.844;4.418;2023-04-06T03:16:06;16.45;;;8.30;;
22336;SDS011;14992;50.844;4.418;2023-04-06T03:18:36;15.88;;;7.35;;
22336;SDS011;14992;50.844;4.418;2023-04-06T03:21:05;16.02;;;8.38;;
22336;SDS011;14992;50.844;4.418;2023-04-06T03:23:43;14.88;;;7.88;;
22336;SDS011;14992;50.844;4.418;2023-04-06T03:26:14;14.55;;;8.40;;
22336;SDS011;14992;50.844;4.418;2023-04-06T03:28:43;15.10;;;8.07;;
22336;SDS011;14992;50.844;4.418;2023-04-06T03:31:13;16.40;;;9.23;;
22336;SDS011;14992;50.844;4.418;2023-04-06T03:33:47;14.95;;;8.27;;
22336;SDS011;14992;50.844;4.418;2023-04-06T03:36:21;15.45;;;8.90;;
22336;SDS011;14992;50.844;4.418;2023-04-06T03:38:53;15.40;;;7.72;;
22336;SDS011;14992;50.844;4.418;2023-04-06T03:41:24;13.63;;;7.82;;
22336;SDS011;14992;50.844;4.418;2023-04-06T03:43:59;15.43;;;8.02;;
22336;SDS011;14992;50.844;4.418;2023-04-06T03:46:28;14.32;;;7.95;;
22336;SDS011;14992;50.844;4.418;2023-04-06T03:48:58;12.50;;;8.38;;
22336;SDS011;14992;50.844;4.418;2023-04-06T03:51:28;14.73;;;9.05;;
22336;SDS011;14992;50.844;4.418;2023-04-06T03:53:57;16.52;;;8.27;;
22336;SDS011;14992;50.844;4.418;2023-04-06T03:56:28;17.75;;;8.23;;
22336;SDS011;14992;50.844;4.418;2023-04-06T03:58:57;16.23;;;8.15;;
22336;SDS011;14992;50.844;4.418;2023-04-06T04:01:26;17.60;;;9.18;;
22336;SDS011;14992;50.844;4.418;2023-04-06T04:03:55;14.48;;;8.07;;
22336;SDS011;14992;50.844;4.418;2023-04-06T04:06:27;14.95;;;8.63;;
22336;SDS011;14992;50.844;4.418;2023-04-06T04:08:58;13.45;;;7.57;;
22336;SDS011;14992;50.844;4.418;2023-04-06T04:11:29;15.00;;;8.55;;
22336;SDS011;14992;50.844;4.418;2023-04-06T04:13:59;18.05;;;9.23;;
22336;SDS011;14992;50.844;4.418;2023-04-06T04:16:28;18.35;;;9.60;;
22336;SDS011;14992;50.844;4.418;2023-04-06T04:18:57;16.08;;;8.18;;
22336;SDS011;14992;50.844;4.418;2023-04-06T04:21:28;14.23;;;8.43;;
22336;SDS011;14992;50.844;4.418;2023-04-06T04:24:05;13.65;;;7.75;;
22336;SDS011;14992;50.844;4.418;2023-04-06T04:26:37;16.33;;;8.35;;
22336;SDS011;14992;50.844;4.418;2023-04-06T04:29:07;14.45;;;7.97;;
22336;SDS011;14992;50.844;4.418;2023-04-06T04:31:37;15.60;;;8.05;;
22336;SDS011;14992;50.844;4.418;2023-04-06T04:34:13;14.63;;;8.45;;
22336;SDS011;14992;50.844;4.418;2023-04-06T04:36:43;18.08;;;9.20;;
22336;SDS011;14992;50.844;4.418;2023-04-06T04:39:22;14.68;;;8.45;;
22336;SDS011;14992;50.844;4.418;2023-04-06T04:42:01;14.23;;;8.75;;
22336;SDS011;14992;50.844;4.418;2023-04-06T04:44:32;14.68;;;8.98;;
22336;SDS011;14992;50.844;4.418;2023-04-06T04:47:02;15.77;;;9.05;;
22336;SDS011;14992;50.844;4.418;2023-04-06T04:49:40;14.70;;;8.00;;
22336;SDS011;14992;50.844;4.418;2023-04-06T04:52:11;16.20;;;8.68;;
22336;SDS011;14992;50.844;4.418;2023-04-06T04:54:54;16.40;;;10.10;;
22336;SDS011;14992;50.844;4.418;2023-04-06T04:57:31;16.95;;;8.98;;
22336;SDS011;14992;50.844;4.418;2023-04-06T05:00:03;18.23;;;8.88;;
22336;SDS011;14992;50.844;4.418;2023-04-06T05:02:35;17.95;;;9.48;;
22336;SDS011;14992;50.844;4.418;2023-04-06T05:05:23;16.77;;;9.20;;
22336;SDS011;14992;50.844;4.418;2023-04-06T05:07:52;19.88;;;9.88;;
22336;SDS011;14992;50.844;4.418;2023-04-06T05:10:35;17.60;;;9.10;;
22336;SDS011;14992;50.844;4.418;2023-04-06T05:13:06;17.80;;;9.05;;
22336;SDS011;14992;50.844;4.418;2023-04-06T05:15:35;16.88;;;8.95;;
22336;SDS011;14992;50.844;4.418;2023-04-06T05:18:23;17.35;;;8.95;;
22336;SDS011;14992;50.844;4.418;2023-04-06T05:20:54;17.02;;;10.25;;
22336;SDS011;14992;50.844;4.418;2023-04-06T05:23:31;15.73;;;9.05;;
22336;SDS011;14992;50.844;4.418;2023-04-06T05:26:02;18.17;;;9.23;;
22336;SDS011;14992;50.844;4.418;2023-04-06T05:28:33;16.63;;;9.48;;
22336;SDS011;14992;50.844;4.418;2023-04-06T05:31:04;16.23;;;8.98;;
22336;SDS011;14992;50.844;4.418;2023-04-06T05:33:43;16.63;;;9.00;;
22336;SDS011;14992;50.844;4.418;2023-04-06T05:36:15;18.25;;;10.65;;
22336;SDS011;14992;50.844;4.418;2023-04-06T05:38:47;21.00;;;9.55;;
22336;SDS011;14992;50.844;4.418;2023-04-06T05:41:31;19.95;;;9.85;;
22336;SDS011;14992;50.844;4.418;2023-04-06T05:44:02;18.50;;;10.30;;
22336;SDS011;14992;50.844;4.418;2023-04-06T05:46:32;19.50;;;9.45;;
22336;SDS011;14992;50.844;4.418;2023-04-06T05:49:02;16.67;;;8.85;;
22336;SDS011;14992;50.844;4.418;2023-04-06T05:54:03;19.83;;;9.15;;
22336;SDS011;14992;50.844;4.418;2023-04-06T05:56:33;20.83;;;9.90;;
22336;SDS011;14992;50.844;4.418;2023-04-06T05:59:06;20.08;;;10.45;;
22336;SDS011;14992;50.844;4.418;2023-04-06T06:01:36;21.08;;;10.32;;
22336;SDS011;14992;50.844;4.418;2023-04-06T06:04:05;17.88;;;9.32;;
22336;SDS011;14992;50.844;4.418;2023-04-06T06:06:37;19.73;;;9.63;;
22336;SDS011;14992;50.844;4.418;2023-04-06T06:09:13;19.83;;;10.38;;
22336;SDS011;14992;50.844;4.418;2023-04-06T06:12:05;17.60;;;9.23;;
22336;SDS011;14992;50.844;4.418;2023-04-06T06:14:36;19.48;;;9.48;;
22336;SDS011;14992;50.844;4.418;2023-04-06T06:17:06;20.67;;;9.75;;
22336;SDS011;14992;50.844;4.418;2023-04-06T06:19:36;20.17;;;10.23;;
22336;SDS011;14992;50.844;4.418;2023-04-06T06:22:07;21.73;;;11.02;;
22336;SDS011;14992;50.844;4.418;2023-04-06T06:24:40;17.05;;;8.98;;
22336;SDS011;14992;50.844;4.418;2023-04-06T06:29:43;14.25;;;8.88;;
22336;SDS011;14992;50.844;4.418;2023-04-06T06:32:12;18.73;;;9.13;;
22336;SDS011;14992;50.844;4.418;2023-04-06T06:34:42;17.92;;;9.52;;
22336;SDS011;14992;50.844;4.418;2023-04-06T06:37:11;17.75;;;9.27;;
22336;SDS011;14992;50.844;4.418;2023-04-06T06:39:41;19.90;;;10.00;;
22336;SDS011;14992;50.844;4.418;2023-04-06T06:42:10;16.65;;;9.20;;
22336;SDS011;14992;50.844;4.418;2023-04-06T06:45:06;21.75;;;9.85;;
22336;SDS011;14992;50.844;4.418;2023-04-06T06:47:36;18.80;;;8.95;;
22336;SDS011;14992;50.844;4.418;2023-04-06T06:50:05;16.70;;;9.05;;
22336;SDS011;14992;50.844;4.418;2023-04-06T06:52:36;23.98;;;9.70;;
22336;SDS011;14992;50.844;4.418;2023-04-06T06:55:05;18.45;;;9.57;;
22336;SDS011;14992;50.844;4.418;2023-04-06T06:57:36;20.17;;;9.43;;
22336;SDS011;14992;50.844;4.418;2023-04-06T07:00:09;15.90;;;9.88;;
22336;SDS011;14992;50.844;4.418;2023-04-06T07:02:44;17.65;;;9.55;;
22336;SDS011;14992;50.844;4.418;2023-04-06T07:05:14;22.00;;;9.85;;
22336;SDS011;14992;50.844;4.418;2023-04-06T07:07:56;19.85;;;10.02;;
22336;SDS011;14992;50.844;4.418;2023-04-06T07:10:25;19.08;;;9.77;;
22336;SDS011;14992;50.844;4.418;2023-04-06T07:12:54;20.23;;;10.00;;
22336;SDS011;14992;50.844;4.418;2023-04-06T07:15:25;16.98;;;9.63;;
22336;SDS011;14992;50.844;4.418;2023-04-06T07:17:54;17.63;;;9.48;;
22336;SDS011;14992;50.844;4.418;2023-04-06T07:20:23;23.35;;;11.45;;
22336;SDS011;14992;50.844;4.418;2023-04-06T07:22:52;16.00;;;8.80;;
22336;SDS011;14992;50.844;4.418;2023-04-06T07:25:22;16.20;;;9.48;;
22336;SDS011;14992;50.844;4.418;2023-04-06T07:27:52;15.02;;;8.13;;
22336;SDS011;14992;50.844;4.418;2023-04-06T07:30:22;18.35;;;9.30;;
22336;SDS011;14992;50.844;4.418;2023-04-06T07:32:59;15.13;;;8.80;;
22336;SDS011;14992;50.844;4.418;2023-04-06T07:35:29;13.45;;;8.60;;
22336;SDS011;14992;50.844;4.418;2023-04-06T07:38:00;13.13;;;8.30;;
22336;SDS011;14992;50.844;4.418;2023-04-06T07:40:31;14.05;;;8.50;;
22336;SDS011;14992;50.844;4.418;2023-04-06T07:43:01;14.75;;;7.68;;
22336;SDS011;14992;50.844;4.418;2023-04-06T07:45:32;14.20;;;7.75;;
22336;SDS011;14992;50.844;4.418;2023-04-06T07:48:02;12.50;;;7.13;;
22336;SDS011;14992;50.844;4.418;2023-04-06T07:50:32;17.15;;;7.90;;
22336;SDS011;14992;50.844;4.418;2023-04-06T07:53:02;13.23;;;6.70;;
22336;SDS011;14992;50.844;4.418;2023-04-06T07:55:32;11.73;;;6.68;;
22336;SDS011;14992;50.844;4.418;2023-04-06T07:58:00;15.05;;;8.00;;
22336;SDS011;14992;50.844;4.418;2023-04-06T08:00:29;14.90;;;7.22;;
22336;SDS011;14992;50.844;4.418;2023-04-06T08:03:00;10.95;;;6.00;;
22336;SDS011;14992;50.844;4.418;2023-04-06T08:05:29;12.55;;;7.50;;
22336;SDS011;14992;50.844;4.418;2023-04-06T08:07:58;11.77;;;6.35;;
22336;SDS011;14992;50.844;4.418;2023-04-06T08:10:27;12.93;;;6.65;;
22336;SDS011;14992;50.844;4.418;2023-04-06T08:12:56;13.57;;;6.18;;
22336;SDS011;14992;50.844;4.418;2023-04-06T08:15:25;12.50;;;6.93;;
22336;SDS011;14992;50.844;4.418;2023-04-06T08:17:54;13.95;;;6.95;;
22336;SDS011;14992;50.844;4.418;2023-04-06T08:20:25;12.07;;;6.68;;
22336;SDS011;14992;50.844;4.418;2023-04-06T08:22:55;11.10;;;6.03;;
22336;SDS011;14992;50.844;4.418;2023-04-06T08:25:26;11.50;;;6.40;;
22336;SDS011;14992;50.844;4.418;2023-04-06T08:27:58;14.90;;;7.45;;
22336;SDS011;14992;50.844;4.418;2023-04-06T08:30:28;9.55;;;6.25;;
22336;SDS011;14992;50.844;4.418;2023-04-06T08:32:58;12.60;;;7.47;;
22336;SDS011;14992;50.844;4.418;2023-04-06T08:35:28;11.35;;;5.78;;
22336;SDS011;14992;50.844;4.418;2023-04-06T08:37:59;11.77;;;6.60;;
22336;SDS011;14992;50.844;4.418;2023-04-06T08:40:28;10.25;;;6.13;;
22336;SDS011;14992;50.844;4.418;2023-04-06T08:42:59;12.38;;;6.88;;
22336;SDS011;14992;50.844;4.418;2023-04-06T08:45:30;12.05;;;7.15;;
22336;SDS011;14992;50.844;4.418;2023-04-06T08:48:00;13.68;;;7.85;;
22336;SDS011;14992;50.844;4.418;2023-04-06T08:50:32;10.80;;;6.30;;
22336;SDS011;14992;50.844;4.418;2023-04-06T08:53:02;11.32;;;6.55;;
22336;SDS011;14992;50.844;4.418;2023-04-06T08:55:31;16.13;;;6.38;;
22336;SDS011;14992;50.844;4.418;2023-04-06T08:58:01;14.00;;;7.82;;
22336;SDS011;14992;50.844;4.418;2023-04-06T09:00:31;11.85;;;7.40;;
22336;SDS011;14992;50.844;4.418;2023-04-06T09:03:00;12.82;;;6.32;;
22336;SDS011;14992;50.844;4.418;2023-04-06T09:05:33;13.77;;;7.25;;
22336;SDS011;14992;50.844;4.418;2023-04-06T09:08:03;11.93;;;6.50;;
22336;SDS011;14992;50.844;4.418;2023-04-06T09:10:32;14.40;;;7.30;;
22336;SDS011;14992;50.844;4.418;2023-04-06T09:13:03;10.98;;;6.20;;
22336;SDS011;14992;50.844;4.418;2023-04-06T09:15:33;13.43;;;7.28;;
22336;SDS011;14992;50.844;4.418;2023-04-06T09:18:03;15.32;;;6.28;;
22336;SDS011;14992;50.844;4.418;2023-04-06T09:20:34;12.50;;;6.57;;
22336;SDS011;14992;50.844;4.418;2023-04-06T09:23:03;11.27;;;5.95;;
22336;SDS011;14992;50.844;4.418;2023-04-06T09:25:32;9.45;;;6.43;;
22336;SDS011;14992;50.844;4.418;2023-04-06T09:28:01;10.13;;;6.20;;
22336;SDS011;14992;50.844;4.418;2023-04-06T09:30:33;12.98;;;6.50;;
22336;SDS011;14992;50.844;4.418;2023-04-06T09:33:03;10.70;;;5.55;;
22336;SDS011;14992;50.844;4.418;2023-04-06T09:35:35;10.50;;;6.43;;
22336;SDS011;14992;50.844;4.418;2023-04-06T09:38:10;10.68;;;5.93;;
22336;SDS011;14992;50.844;4.418;2023-04-06T09:40:49;12.25;;;6.57;;
22336;SDS011;14992;50.844;4.418;2023-04-06T09:43:27;13.60;;;6.72;;
22336;SDS011;14992;50.844;4.418;2023-04-06T09:45:56;10.73;;;6.40;;
22336;SDS011;14992;50.844;4.418;2023-04-06T09:48:25;13.88;;;6.85;;
22336;SDS011;14992;50.844;4.418;2023-04-06T09:51:01;17.10;;;7.05;;
22336;SDS011;14992;50.844;4.418;2023-04-06T09:53:33;9.30;;;6.07;;
22336;SDS011;14992;50.844;4.418;2023-04-06T09:56:07;11.50;;;5.93;;
22336;SDS011;14992;50.844;4.418;2023-04-06T09:58:40;12.13;;;6.40;;
22336;SDS011;14992;50.844;4.418;2023-04-06T10:01:14;9.63;;;6.53;;
22336;SDS011;14992;50.844;4.418;2023-04-06T10:03:48;12.15;;;6.28;;
22336;SDS011;14992;50.844;4.418;2023-04-06T10:06:25;12.20;;;7.90;;
22336;SDS011;14992;50.844;4.418;2023-04-06T10:08:59;11.40;;;6.63;;
22336;SDS011;14992;50.844;4.418;2023-04-06T10:11:32;10.82;;;6.85;;
22336;SDS011;14992;50.844;4.418;2023-04-06T10:14:02;11.93;;;6.32;;
22336;SDS011;14992;50.844;4.418;2023-04-06T10:16:32;13.77;;;7.07;;
22336;SDS011;14992;50.844;4.418;2023-04-06T10:19:04;11.90;;;6.10;;
22336;SDS011;14992;50.844;4.418;2023-04-06T10:21:42;9.13;;;5.07;;
22336;SDS011;14992;50.844;4.418;2023-04-06T10:24:16;11.48;;;6.63;;
22336;SDS011;14992;50.844;4.418;2023-04-06T10:26:54;11.77;;;6.57;;
22336;SDS011;14992;50.844;4.418;2023-04-06T10:29:25;12.80;;;6.15;;
22336;SDS011;14992;50.844;4.418;2023-04-06T10:31:54;10.40;;;6.10;;
22336;SDS011;14992;50.844;4.418;2023-04-06T10:34:23;9.82;;;6.82;;
22336;SDS011;14992;50.844;4.418;2023-04-06T10:37:11;14.13;;;7.57;;
22336;SDS011;14992;50.844;4.418;2023-04-06T10:39:49;13.63;;;6.80;;
22336;SDS011;14992;50.844;4.418;2023-04-06T10:42:23;13.75;;;6.95;;
22336;SDS011;14992;50.844;4.418;2023-04-06T10:44:53;11.52;;;7.53;;
22336;SDS011;14992;50.844;4.418;2023-04-06T10:47:22;11.82;;;6.00;;
22336;SDS011;14992;50.844;4.418;2023-04-06T10:49:51;12.77;;;7.25;;
22336;SDS011;14992;50.844;4.418;2023-04-06T10:52:22;11.15;;;6.53;;
22336;SDS011;14992;50.844;4.418;2023-04-06T10:54:51;15.90;;;6.70;;
22336;SDS011;14992;50.844;4.418;2023-04-06T10:57:27;12.60;;;7.35;;
22336;SDS011;14992;50.844;4.418;2023-04-06T11:00:00;17.30;;;7.80;;
22336;SDS011;14992;50.844;4.418;2023-04-06T11:02:29;15.27;;;7.80;;
22336;SDS011;14992;50.844;4.418;2023-04-06T11:04:58;10.57;;;6.72;;
22336;SDS011;14992;50.844;4.418;2023-04-06T11:07:28;11.77;;;6.88;;
22336;SDS011;14992;50.844;4.418;2023-04-06T11:09:57;14.68;;;6.90;;
22336;SDS011;14992;50.844;4.418;2023-04-06T11:12:42;15.80;;;7.88;;
22336;SDS011;14992;50.844;4.418;2023-04-06T11:15:11;13.00;;;8.48;;
22336;SDS011;14992;50.844;4.418;2023-04-06T11:17:40;15.00;;;9.13;;
22336;SDS011;14992;50.844;4.418;2023-04-06T11:20:10;11.95;;;6.97;;
22336;SDS011;14992;50.844;4.418;2023-04-06T11:22:52;12.75;;;6.72;;
22336;SDS011;14992;50.844;4.418;2023-04-06T11:25:21;12.02;;;8.00;;
22336;SDS011;14992;50.844;4.418;2023-04-06T11:30:28;12.00;;;7.07;;
22336;SDS011;14992;50.844;4.418;2023-04-06T11:33:00;15.98;;;6.85;;
22336;SDS011;14992;50.844;4.418;2023-04-06T11:35:30;12.75;;;7.35;;
22336;SDS011;14992;50.844;4.418;2023-04-06T11:38:03;11.77;;;7.20;;
22336;SDS011;14992;50.844;4.418;2023-04-06T11:40:33;15.27;;;7.50;;
22336;SDS011;14992;50.844;4.418;2023-04-06T11:43:03;12.07;;;6.68;;
22336;SDS011;14992;50.844;4.418;2023-04-06T11:45:39;14.73;;;7.43;;
22336;SDS011;14992;50.844;4.418;2023-04-06T11:48:17;14.05;;;6.43;;
22336;SDS011;14992;50.844;4.418;2023-04-06T11:50:54;14.45;;;7.70;;
22336;SDS011;14992;50.844;4.418;2023-04-06T11:53:26;11.68;;;6.38;;
22336;SDS011;14992;50.844;4.418;2023-04-06T11:55:57;11.27;;;6.75;;
22336;SDS011;14992;50.844;4.418;2023-04-06T11:58:26;14.02;;;7.40;;
22336;SDS011;14992;50.844;4.418;2023-04-06T12:01:02;15.60;;;7.38;;
22336;SDS011;14992;50.844;4.418;2023-04-06T12:03:32;13.30;;;6.65;;
22336;SDS011;14992;50.844;4.418;2023-04-06T12:06:01;13.80;;;7.28;;
22336;SDS011;14992;50.844;4.418;2023-04-06T12:08:32;11.15;;;6.72;;
22336;SDS011;14992;50.844;4.418;2023-04-06T12:11:05;13.93;;;8.70;;
22336;SDS011;14992;50.844;4.418;2023-04-06T12:13:38;13.50;;;6.97;;
22336;SDS011;14992;50.844;4.418;2023-04-06T12:16:12;10.73;;;6.07;;
22336;SDS011;14992;50.844;4.418;2023-04-06T12:18:42;12.75;;;7.57;;
22336;SDS011;14992;50.844;4.418;2023-04-06T12:21:12;12.73;;;7.13;;
22336;SDS011;14992;50.844;4.418;2023-04-06T12:23:46;13.68;;;8.20;;
22336;SDS011;14992;50.844;4.418;2023-04-06T12:26:19;16.58;;;9.50;;
22336;SDS011;14992;50.844;4.418;2023-04-06T12:28:52;12.63;;;7.30;;
22336;SDS011;14992;50.844;4.418;2023-04-06T12:31:22;11.82;;;7.40;;
22336;SDS011;14992;50.844;4.418;2023-04-06T12:33:52;11.02;;;7.75;;
22336;SDS011;14992;50.844;4.418;2023-04-06T12:36:23;14.07;;;6.32;;
22336;SDS011;14992;50.844;4.418;2023-04-06T12:38:53;12.60;;;7.18;;
22336;SDS011;14992;50.844;4.418;2023-04-06T12:41:23;11.63;;;7.13;;
22336;SDS011;14992;50.844;4.418;2023-04-06T12:43:55;11.05;;;6.53;;
22336;SDS011;14992;50.844;4.418;2023-04-06T12:46:23;13.48;;;6.93;;
22336;SDS011;14992;50.844;4.418;2023-04-06T12:48:54;13.20;;;8.23;;
22336;SDS011;14992;50.844;4.418;2023-04-06T12:51:23;11.25;;;7.10;;
22336;SDS011;14992;50.844;4.418;2023-04-06T12:53:54;12.00;;;8.05;;
22336;SDS011;14992;50.844;4.418;2023-04-06T12:56:23;9.63;;;6.53;;
22336;SDS011;14992;50.844;4.418;2023-04-06T12:58:52;13.05;;;7.18;;
22336;SDS011;14992;50.844;4.418;2023-04-06T13:01:22;14.45;;;6.82;;
22336;SDS011;14992;50.844;4.418;2023-04-06T13:03:52;11.15;;;7.18;;
22336;SDS011;14992;50.844;4.418;2023-04-06T13:06:21;13.48;;;7.68;;
22336;SDS011;14992;50.844;4.418;2023-04-06T13:08:57;14.68;;;8.30;;
22336;SDS011;14992;50.844;4.418;2023-04-06T13:11:26;11.60;;;7.63;;
22336;SDS011;14992;50.844;4.418;2023-04-06T13:13:57;12.45;;;7.97;;
22336;SDS011;14992;50.844;4.418;2023-04-06T13:16:26;15.00;;;7.95;;
22336;SDS011;14992;50.844;4.418;2023-04-06T13:18:56;14.00;;;8.68;;
22336;SDS011;14992;50.844;4.418;2023-04-06T13:21:25;13.43;;;8.05;;
22336;SDS011;14992;50.844;4.418;2023-04-06T13:23:54;16.05;;;7.53;;
22336;SDS011;14992;50.844;4.418;2023-04-06T13:26:25;15.75;;;8.63;;
22336;SDS011;14992;50.844;4.418;2023-04-06T13:28:55;15.40;;;8.55;;
22336;SDS011;14992;50.844;4.418;2023-04-06T13:31:25;15.27;;;9.07;;
22336;SDS011;14992;50.844;4.418;2023-04-06T13:33:54;15.43;;;9.40;;
22336;SDS011;14992;50.844;4.418;2023-04-06T13:36:24;14.57;;;8.25;;
22336;SDS011;14992;50.844;4.418;2023-04-06T13:38:55;12.52;;;7.45;;
22336;SDS011;14992;50.844;4.418;2023-04-06T13:41:28;12.85;;;7.90;;
22336;SDS011;14992;50.844;4.418;2023-04-06T13:43:57;13.75;;;7.70;;
22336;SDS011;14992;50.844;4.418;2023-04-06T13:46:27;16.02;;;7.53;;
22336;SDS011;14992;50.844;4.418;2023-04-06T13:48:56;14.30;;;7.93;;
22336;SDS011;14992;50.844;4.418;2023-04-06T13:51:25;13.40;;;7.65;;
22336;SDS011;14992;50.844;4.418;2023-04-06T13:53:57;15.80;;;8.95;;
22336;SDS011;14992;50.844;4.418;2023-04-06T13:56:26;13.98;;;9.15;;
22336;SDS011;14992;50.844;4.418;2023-04-06T13:58:56;13.43;;;7.93;;
22336;SDS011;14992;50.844;4.418;2023-04-06T14:01:25;12.82;;;7.85;;
22336;SDS011;14992;50.844;4.418;2023-04-06T14:03:54;13.50;;;8.43;;
22336;SDS011;14992;50.844;4.418;2023-04-06T14:06:24;12.95;;;7.55;;
22336;SDS011;14992;50.844;4.418;2023-04-06T14:08:59;14.85;;;8.05;;
22336;SDS011;14992;50.844;4.418;2023-04-06T14:11:28;12.77;;;7.50;;
22336;SDS011;14992;50.844;4.418;2023-04-06T14:13:58;14.23;;;7.75;;
22336;SDS011;14992;50.844;4.418;2023-04-06T14:16:28;14.93;;;8.27;;
22336;SDS011;14992;50.844;4.418;2023-04-06T14:18:58;13.20;;;7.80;;
22336;SDS011;14992;50.844;4.418;2023-04-06T14:21:27;12.23;;;8.38;;
22336;SDS011;14992;50.844;4.418;2023-04-06T14:23:56;14.75;;;8.48;;
22336;SDS011;14992;50.844;4.418;2023-04-06T14:26:27;13.13;;;8.68;;
22336;SDS011;14992;50.844;4.418;2023-04-06T14:28:56;11.45;;;7.80;;
22336;SDS011;14992;50.844;4.418;2023-04-06T14:31:27;15.65;;;8.73;;
22336;SDS011;14992;50.844;4.418;2023-04-06T14:33:57;10.68;;;7.38;;
22336;SDS011;14992;50.844;4.418;2023-04-06T14:36:27;14.15;;;9.07;;
22336;SDS011;14992;50.844;4.418;2023-04-06T14:39:03;13.20;;;8.18;;
22336;SDS011;14992;50.844;4.418;2023-04-06T14:41:34;12.82;;;8.90;;
22336;SDS011;14992;50.844;4.418;2023-04-06T14:44:03;13.52;;;9.02;;
22336;SDS011;14992;50.844;4.418;2023-04-06T14:46:33;12.57;;;8.40;;
22336;SDS011;14992;50.844;4.418;2023-04-06T14:49:03;13.60;;;8.73;;
22336;SDS011;14992;50.844;4.418;2023-04-06T14:51:33;17.88;;;10.32;;
22336;SDS011;14992;50.844;4.418;2023-04-06T14:54:02;14.25;;;9.07;;
22336;SDS011;14992;50.844;4.418;2023-04-06T14:56:36;15.75;;;9.15;;
22336;SDS011;14992;50.844;4.418;2023-04-06T14:59:05;14.65;;;9.10;;
22336;SDS011;14992;50.844;4.418;2023-04-06T15:01:34;16.00;;;10.23;;
22336;SDS011;14992;50.844;4.418;2023-04-06T15:04:04;17.42;;;10.63;;
22336;SDS011;14992;50.844;4.418;2023-04-06T15:06:33;18.55;;;9.90;;
22336;SDS011;14992;50.844;4.418;2023-04-06T15:09:03;16.50;;;9.73;;
22336;SDS011;14992;50.844;4.418;2023-04-06T15:11:31;15.70;;;9.50;;